Nearby METAR Reports

 

KPMP - Pompano Beach, Florida, USA
Distance from station: NNW 3mi, 5km
Updated: 05/19/2022 4:53am
Clear
Clear
 Wind from calm
Wind: Calm
Temperature: 77°F , 25°C
Dew Point: 73°F , 23°C
Humidity: 89%
Barometer: 29.98 inHg , 1015.2 hPa
Clouds: Clear
Visibility: 10 miles , 16 km
2022/05/19 08:53 KPMP 190853Z AUTO 00000KT 10SM CLR 25/23 A2998 RMK AO2 SLP154 T02500228 56010
KFXE - Ft Lauderd/Exec, Florida, USA
Distance from station: W 6mi, 9km
Updated: 05/19/2022 4:53am
Clear
Clear
 Wind from calm
Wind: Calm
Temperature: 77°F , 25°C
Dew Point: 73°F , 23°C
Humidity: 89%
Barometer: 29.98 inHg , 1015.2 hPa
Clouds: Clear
Visibility: 10 miles , 16 km
2022/05/19 08:53 KFXE 190853Z 00000KT 10SM CLR 25/23 A2998 RMK AO2 SLP155 T02500228 56010
 
KFLL - Ft Lauderd/Holly, Florida, USA
Distance from station: SSW 11mi, 17km
Updated: 05/19/2022 3:53am
Clear
Clear
 Wind from calm
Wind: Calm
Temperature: 79°F , 26°C
Dew Point: 73°F , 23°C
Humidity: 84%
Barometer: 29.98 inHg , 1015.2 hPa
Clouds: Clear
Visibility: 10 miles , 16 km
2022/05/19 07:53 KFLL 190753Z 00000KT 10SM CLR 26/23 A2998 RMK AO2 SLP153 T02610233 $
KBCT - Boca Raton, Florida, USA
Distance from station: N 12mi, 19km
Updated: 05/18/2022 10:53pm
NOT Current
Clear
Clear
 Wind from S
Wind: S 5 mph , 7 km/h
Temperature: 81°F , 27°C
Heat Index: 86°F , 30°C
Dew Point: 73°F , 23°C
Humidity: 79%
Barometer: 30.04 inHg , 1017.3 hPa
Clouds: Clear
Visibility: 10 miles , 16 km
2022/05/19 02:53 KBCT 190253Z 18004KT 10SM CLR 27/23 A3004
 
KHWO - Hollywood, Florida, USA
Distance from station: SSW 17mi, 27km
Updated: 05/19/2022 4:53am
Clear
Clear
 Wind from calm
Wind: Calm
Temperature: 77°F , 25°C
Dew Point: 72°F , 22°C
Humidity: 83%
Barometer: 30.00 inHg , 1015.9 hPa
Clouds: Clear
Visibility: 10 miles , 16 km
2022/05/19 08:53 KHWO 190853Z 00000KT 10SM CLR 25/22 A3000 RMK AO2 SLP158 T02500222 56009 $
KOPF - Miami/Opa Locka, Florida, USA
Distance from station: SSW 24mi, 38km
Updated: 05/19/2022 4:53am
Clear
Clear
 Wind from calm
Wind: Calm
Temperature: 77°F , 25°C
Dew Point: 72°F , 22°C
Humidity: 83%
Barometer: 29.99 inHg , 1015.6 hPa
Clouds: Clear
Visibility: 10 miles , 16 km
2022/05/19 08:53 KOPF 190853Z AUTO 00000KT 10SM CLR 25/22 A2999 RMK AO2 SLP155 T02500222 56010
 
KMIA - Miami, Florida, USA
Distance from station: SSW 31mi, 50km
Updated: 05/19/2022 4:53am
Few Clouds
Few Clouds
 Wind from calm
Wind: Calm
Temperature: 79°F , 26°C
Dew Point: 73°F , 23°C
Humidity: 84%
Barometer: 29.99 inHg , 1015.6 hPa
Clouds: Few Clouds
Visibility: 10 miles , 16 km
Cloud details: Few Clouds 2200 ft
2022/05/19 08:53 KMIA 190853Z 00000KT 10SM FEW022 26/23 A2999 RMK AO2 SLP154 T02610233 56009 $
KPBI - West Palm Beach, Florida, USA
Distance from station: N 33mi, 52km
Updated: 05/19/2022 4:53am
Clear
Clear
 Wind from SSW
Wind: SSW 5 mph , 7 km/h
Temperature: 77°F , 25°C
Dew Point: 72°F , 22°C
Humidity: 83%
Barometer: 29.99 inHg , 1015.6 hPa
Clouds: Clear
Visibility: 10 miles , 16 km
2022/05/19 08:53 KPBI 190853Z 21004KT 10SM CLR 25/22 A2999 RMK AO2 SLP155 T02500222 56008 $
 
KTMB - Miami/Tamiami, Florida, USA
Distance from station: SSW 44mi, 71km
Updated: 05/19/2022 4:53am
Clear
Clear
 Wind from calm
Wind: Calm
Temperature: 73°F , 23°C
Dew Point: 72°F , 22°C
Humidity: 94%
Barometer: 29.98 inHg , 1015.2 hPa
Clouds: Clear
Visibility: 10 miles , 16 km
2022/05/19 08:53 KTMB 190853Z AUTO 00000KT 10SM CLR 23/22 A2998 RMK AO2 SLP153 T02330222 56009